sensor_id;sensor_type;location;lat;lon;timestamp;P1;durP1;ratioP1;P2;durP2;ratioP2
51266;SDS011;37338;47.426;19.204;2023-08-31T00:01:48;10.70;;;5.47;;
51266;SDS011;37338;47.426;19.204;2023-08-31T00:04:14;10.77;;;5.53;;
51266;SDS011;37338;47.426;19.204;2023-08-31T00:06:42;8.63;;;5.65;;
51266;SDS011;37338;47.426;19.204;2023-08-31T00:09:10;11.15;;;6.07;;
51266;SDS011;37338;47.426;19.204;2023-08-31T00:11:36;7.80;;;6.20;;
51266;SDS011;37338;47.426;19.204;2023-08-31T00:14:01;9.63;;;6.13;;
51266;SDS011;37338;47.426;19.204;2023-08-31T00:16:27;7.68;;;5.70;;
51266;SDS011;37338;47.426;19.204;2023-08-31T00:18:53;7.50;;;5.88;;
51266;SDS011;37338;47.426;19.204;2023-08-31T00:21:19;8.70;;;6.38;;
51266;SDS011;37338;47.426;19.204;2023-08-31T00:23:46;6.68;;;5.63;;
51266;SDS011;37338;47.426;19.204;2023-08-31T00:26:11;9.65;;;6.80;;
51266;SDS011;37338;47.426;19.204;2023-08-31T00:28:36;8.45;;;6.50;;
51266;SDS011;37338;47.426;19.204;2023-08-31T00:31:03;8.02;;;5.90;;
51266;SDS011;37338;47.426;19.204;2023-08-31T00:33:29;7.22;;;6.07;;
51266;SDS011;37338;47.426;19.204;2023-08-31T00:35:55;6.97;;;6.28;;
51266;SDS011;37338;47.426;19.204;2023-08-31T00:38:21;10.40;;;6.50;;
51266;SDS011;37338;47.426;19.204;2023-08-31T00:40:46;8.73;;;6.10;;
51266;SDS011;37338;47.426;19.204;2023-08-31T00:43:15;7.32;;;5.82;;
51266;SDS011;37338;47.426;19.204;2023-08-31T00:45:41;7.55;;;5.88;;
51266;SDS011;37338;47.426;19.204;2023-08-31T00:48:06;8.52;;;5.88;;
51266;SDS011;37338;47.426;19.204;2023-08-31T00:50:32;10.57;;;5.72;;
51266;SDS011;37338;47.426;19.204;2023-08-31T00:52:57;6.47;;;5.30;;
51266;SDS011;37338;47.426;19.204;2023-08-31T00:55:23;6.90;;;5.68;;
51266;SDS011;37338;47.426;19.204;2023-08-31T00:57:48;5.82;;;5.20;;
51266;SDS011;37338;47.426;19.204;2023-08-31T01:00:14;8.90;;;5.18;;
51266;SDS011;37338;47.426;19.204;2023-08-31T01:02:42;9.07;;;5.93;;
51266;SDS011;37338;47.426;19.204;2023-08-31T01:11:37;6.22;;;5.18;;
51266;SDS011;37338;47.426;19.204;2023-08-31T01:14:22;5.93;;;5.43;;
51266;SDS011;37338;47.426;19.204;2023-08-31T01:16:49;8.45;;;5.78;;
51266;SDS011;37338;47.426;19.204;2023-08-31T01:22:00;7.85;;;5.75;;
51266;SDS011;37338;47.426;19.204;2023-08-31T01:24:27;6.97;;;4.90;;
51266;SDS011;37338;47.426;19.204;2023-08-31T01:26:53;10.07;;;4.72;;
51266;SDS011;37338;47.426;19.204;2023-08-31T01:29:18;6.35;;;5.15;;
51266;SDS011;37338;47.426;19.204;2023-08-31T01:31:44;5.30;;;4.80;;
51266;SDS011;37338;47.426;19.204;2023-08-31T01:34:10;6.20;;;5.15;;
51266;SDS011;37338;47.426;19.204;2023-08-31T01:36:36;5.60;;;4.63;;
51266;SDS011;37338;47.426;19.204;2023-08-31T01:41:31;8.32;;;4.50;;
51266;SDS011;37338;47.426;19.204;2023-08-31T01:44:00;8.68;;;5.30;;
51266;SDS011;37338;47.426;19.204;2023-08-31T01:46:27;5.45;;;4.95;;
51266;SDS011;37338;47.426;19.204;2023-08-31T01:48:52;7.05;;;4.65;;
51266;SDS011;37338;47.426;19.204;2023-08-31T01:51:17;6.90;;;4.25;;
51266;SDS011;37338;47.426;19.204;2023-08-31T01:53:43;6.10;;;4.78;;
51266;SDS011;37338;47.426;19.204;2023-08-31T01:56:09;5.72;;;4.65;;
51266;SDS011;37338;47.426;19.204;2023-08-31T01:58:35;10.13;;;5.30;;
51266;SDS011;37338;47.426;19.204;2023-08-31T02:01:00;5.20;;;4.68;;
51266;SDS011;37338;47.426;19.204;2023-08-31T02:03:25;4.80;;;4.30;;
51266;SDS011;37338;47.426;19.204;2023-08-31T02:05:51;5.53;;;4.45;;
51266;SDS011;37338;47.426;19.204;2023-08-31T02:08:16;5.07;;;3.92;;
51266;SDS011;37338;47.426;19.204;2023-08-31T02:10:43;6.63;;;4.18;;
51266;SDS011;37338;47.426;19.204;2023-08-31T02:13:09;6.38;;;4.65;;
51266;SDS011;37338;47.426;19.204;2023-08-31T02:15:37;10.50;;;5.40;;
51266;SDS011;37338;47.426;19.204;2023-08-31T02:18:03;5.78;;;4.50;;
51266;SDS011;37338;47.426;19.204;2023-08-31T02:20:29;4.55;;;4.05;;
51266;SDS011;37338;47.426;19.204;2023-08-31T02:22:55;6.70;;;4.35;;
51266;SDS011;37338;47.426;19.204;2023-08-31T02:25:21;6.07;;;4.63;;
51266;SDS011;37338;47.426;19.204;2023-08-31T02:27:46;5.40;;;4.38;;
51266;SDS011;37338;47.426;19.204;2023-08-31T02:30:11;6.45;;;4.35;;
51266;SDS011;37338;47.426;19.204;2023-08-31T02:32:37;5.75;;;3.85;;
51266;SDS011;37338;47.426;19.204;2023-08-31T02:35:02;4.20;;;3.80;;
51266;SDS011;37338;47.426;19.204;2023-08-31T02:37:28;7.10;;;4.40;;
51266;SDS011;37338;47.426;19.204;2023-08-31T02:39:53;6.85;;;4.35;;
51266;SDS011;37338;47.426;19.204;2023-08-31T02:42:19;4.07;;;3.72;;
51266;SDS011;37338;47.426;19.204;2023-08-31T02:44:44;4.18;;;3.83;;
51266;SDS011;37338;47.426;19.204;2023-08-31T02:47:09;4.15;;;3.53;;
51266;SDS011;37338;47.426;19.204;2023-08-31T02:49:35;4.78;;;3.75;;
51266;SDS011;37338;47.426;19.204;2023-08-31T02:52:00;7.55;;;3.85;;
51266;SDS011;37338;47.426;19.204;2023-08-31T02:54:26;4.20;;;3.80;;
51266;SDS011;37338;47.426;19.204;2023-08-31T02:56:51;5.53;;;3.55;;
51266;SDS011;37338;47.426;19.204;2023-08-31T02:59:16;5.00;;;4.03;;
51266;SDS011;37338;47.426;19.204;2023-08-31T03:01:42;4.43;;;3.47;;
51266;SDS011;37338;47.426;19.204;2023-08-31T03:04:11;5.63;;;3.60;;
51266;SDS011;37338;47.426;19.204;2023-08-31T03:06:37;4.47;;;4.07;;
51266;SDS011;37338;47.426;19.204;2023-08-31T03:09:02;5.13;;;3.33;;
51266;SDS011;37338;47.426;19.204;2023-08-31T03:11:28;7.05;;;3.58;;
51266;SDS011;37338;47.426;19.204;2023-08-31T03:13:53;10.95;;;3.45;;
51266;SDS011;37338;47.426;19.204;2023-08-31T03:16:18;5.03;;;3.80;;
51266;SDS011;37338;47.426;19.204;2023-08-31T03:18:44;3.72;;;3.38;;
51266;SDS011;37338;47.426;19.204;2023-08-31T03:21:09;4.78;;;3.70;;
51266;SDS011;37338;47.426;19.204;2023-08-31T03:23:34;4.47;;;3.80;;
51266;SDS011;37338;47.426;19.204;2023-08-31T03:26:05;5.97;;;3.67;;
51266;SDS011;37338;47.426;19.204;2023-08-31T03:28:31;4.82;;;3.45;;
51266;SDS011;37338;47.426;19.204;2023-08-31T03:30:57;5.70;;;3.95;;
51266;SDS011;37338;47.426;19.204;2023-08-31T03:33:22;5.43;;;3.97;;
51266;SDS011;37338;47.426;19.204;2023-08-31T03:35:48;4.82;;;4.15;;
51266;SDS011;37338;47.426;19.204;2023-08-31T03:38:13;5.20;;;4.10;;
51266;SDS011;37338;47.426;19.204;2023-08-31T03:40:39;5.78;;;3.85;;
51266;SDS011;37338;47.426;19.204;2023-08-31T03:43:04;8.35;;;4.28;;
51266;SDS011;37338;47.426;19.204;2023-08-31T03:45:29;8.65;;;3.38;;
51266;SDS011;37338;47.426;19.204;2023-08-31T03:47:55;6.07;;;3.78;;
51266;SDS011;37338;47.426;19.204;2023-08-31T03:50:20;7.03;;;4.63;;
51266;SDS011;37338;47.426;19.204;2023-08-31T03:52:46;5.15;;;3.97;;
51266;SDS011;37338;47.426;19.204;2023-08-31T03:55:11;6.25;;;3.75;;
51266;SDS011;37338;47.426;19.204;2023-08-31T03:57:36;5.63;;;4.82;;
51266;SDS011;37338;47.426;19.204;2023-08-31T04:00:02;6.60;;;4.45;;
51266;SDS011;37338;47.426;19.204;2023-08-31T04:02:33;6.72;;;3.92;;
51266;SDS011;37338;47.426;19.204;2023-08-31T04:04:59;5.93;;;4.00;;
51266;SDS011;37338;47.426;19.204;2023-08-31T04:07:25;8.10;;;4.28;;
51266;SDS011;37338;47.426;19.204;2023-08-31T04:09:50;6.65;;;4.15;;
51266;SDS011;37338;47.426;19.204;2023-08-31T04:12:15;7.70;;;3.72;;
51266;SDS011;37338;47.426;19.204;2023-08-31T04:14:41;5.05;;;3.60;;
51266;SDS011;37338;47.426;19.204;2023-08-31T04:17:06;8.32;;;3.67;;
51266;SDS011;37338;47.426;19.204;2023-08-31T04:19:32;4.65;;;4.20;;
51266;SDS011;37338;47.426;19.204;2023-08-31T04:21:57;4.28;;;3.88;;
51266;SDS011;37338;47.426;19.204;2023-08-31T04:24:22;5.30;;;3.70;;
51266;SDS011;37338;47.426;19.204;2023-08-31T04:26:48;5.18;;;3.70;;
51266;SDS011;37338;47.426;19.204;2023-08-31T04:29:16;5.45;;;3.70;;
51266;SDS011;37338;47.426;19.204;2023-08-31T04:31:41;3.80;;;3.47;;
51266;SDS011;37338;47.426;19.204;2023-08-31T04:34:07;5.68;;;3.85;;
51266;SDS011;37338;47.426;19.204;2023-08-31T04:36:32;4.15;;;3.75;;
51266;SDS011;37338;47.426;19.204;2023-08-31T04:38:58;4.95;;;3.58;;
51266;SDS011;37338;47.426;19.204;2023-08-31T04:41:23;7.85;;;3.70;;
51266;SDS011;37338;47.426;19.204;2023-08-31T04:43:49;4.40;;;3.88;;
51266;SDS011;37338;47.426;19.204;2023-08-31T04:46:14;3.90;;;3.60;;
51266;SDS011;37338;47.426;19.204;2023-08-31T04:48:40;9.23;;;3.53;;
51266;SDS011;37338;47.426;19.204;2023-08-31T04:51:05;5.80;;;3.65;;
51266;SDS011;37338;47.426;19.204;2023-08-31T04:53:31;3.72;;;2.95;;
51266;SDS011;37338;47.426;19.204;2023-08-31T04:55:56;5.95;;;2.90;;
51266;SDS011;37338;47.426;19.204;2023-08-31T04:58:22;6.03;;;3.67;;
51266;SDS011;37338;47.426;19.204;2023-08-31T05:00:47;4.18;;;3.13;;
51266;SDS011;37338;47.426;19.204;2023-08-31T05:03:13;5.72;;;3.63;;
51266;SDS011;37338;47.426;19.204;2023-08-31T05:05:39;6.63;;;2.92;;
51266;SDS011;37338;47.426;19.204;2023-08-31T05:08:04;4.70;;;3.25;;
51266;SDS011;37338;47.426;19.204;2023-08-31T05:10:30;5.00;;;3.08;;
51266;SDS011;37338;47.426;19.204;2023-08-31T05:12:55;5.57;;;3.50;;
51266;SDS011;37338;47.426;19.204;2023-08-31T05:15:21;5.50;;;3.42;;
51266;SDS011;37338;47.426;19.204;2023-08-31T05:17:47;4.38;;;3.33;;
51266;SDS011;37338;47.426;19.204;2023-08-31T05:20:13;3.90;;;3.17;;
51266;SDS011;37338;47.426;19.204;2023-08-31T05:22:39;6.32;;;3.60;;
51266;SDS011;37338;47.426;19.204;2023-08-31T05:25:04;6.70;;;3.03;;
51266;SDS011;37338;47.426;19.204;2023-08-31T05:27:30;3.25;;;2.95;;
51266;SDS011;37338;47.426;19.204;2023-08-31T05:29:55;2.95;;;2.75;;
51266;SDS011;37338;47.426;19.204;2023-08-31T05:32:20;5.10;;;3.22;;
51266;SDS011;37338;47.426;19.204;2023-08-31T05:34:46;2.67;;;2.10;;
51266;SDS011;37338;47.426;19.204;2023-08-31T05:37:11;7.18;;;2.15;;
51266;SDS011;37338;47.426;19.204;2023-08-31T05:39:37;3.33;;;2.35;;
51266;SDS011;37338;47.426;19.204;2023-08-31T05:42:02;4.13;;;2.22;;
51266;SDS011;37338;47.426;19.204;2023-08-31T05:44:27;4.22;;;1.98;;
51266;SDS011;37338;47.426;19.204;2023-08-31T05:46:53;4.55;;;2.08;;
51266;SDS011;37338;47.426;19.204;2023-08-31T05:49:18;6.10;;;2.65;;
51266;SDS011;37338;47.426;19.204;2023-08-31T05:51:44;1.95;;;1.75;;
51266;SDS011;37338;47.426;19.204;2023-08-31T05:54:09;3.10;;;1.35;;
51266;SDS011;37338;47.426;19.204;2023-08-31T05:56:37;3.67;;;1.63;;
51266;SDS011;37338;47.426;19.204;2023-08-31T05:59:04;3.90;;;1.52;;
51266;SDS011;37338;47.426;19.204;2023-08-31T06:01:30;5.63;;;1.73;;
51266;SDS011;37338;47.426;19.204;2023-08-31T06:03:55;2.60;;;1.60;;
51266;SDS011;37338;47.426;19.204;2023-08-31T06:06:21;1.42;;;1.33;;
51266;SDS011;37338;47.426;19.204;2023-08-31T06:08:46;1.63;;;1.52;;
51266;SDS011;37338;47.426;19.204;2023-08-31T06:11:13;4.13;;;1.40;;
51266;SDS011;37338;47.426;19.204;2023-08-31T06:13:38;3.25;;;1.73;;
51266;SDS011;37338;47.426;19.204;2023-08-31T06:16:04;1.83;;;1.05;;
51266;SDS011;37338;47.426;19.204;2023-08-31T06:18:29;1.77;;;1.42;;
51266;SDS011;37338;47.426;19.204;2023-08-31T06:20:54;2.08;;;1.55;;
51266;SDS011;37338;47.426;19.204;2023-08-31T06:23:20;2.67;;;1.33;;
51266;SDS011;37338;47.426;19.204;2023-08-31T06:25:46;5.05;;;1.50;;
51266;SDS011;37338;47.426;19.204;2023-08-31T06:28:11;3.17;;;1.50;;
51266;SDS011;37338;47.426;19.204;2023-08-31T06:30:37;7.40;;;2.17;;
51266;SDS011;37338;47.426;19.204;2023-08-31T06:33:03;9.75;;;2.30;;
51266;SDS011;37338;47.426;19.204;2023-08-31T06:35:28;3.78;;;1.45;;
51266;SDS011;37338;47.426;19.204;2023-08-31T06:37:54;2.30;;;1.35;;
51266;SDS011;37338;47.426;19.204;2023-08-31T06:40:21;5.30;;;1.75;;
51266;SDS011;37338;47.426;19.204;2023-08-31T06:42:46;1.98;;;0.80;;
51266;SDS011;37338;47.426;19.204;2023-08-31T06:45:12;3.38;;;1.00;;
51266;SDS011;37338;47.426;19.204;2023-08-31T06:47:37;8.70;;;1.50;;
51266;SDS011;37338;47.426;19.204;2023-08-31T06:50:02;2.50;;;1.05;;
51266;SDS011;37338;47.426;19.204;2023-08-31T06:52:28;3.13;;;1.17;;
51266;SDS011;37338;47.426;19.204;2023-08-31T06:54:54;2.45;;;0.95;;
51266;SDS011;37338;47.426;19.204;2023-08-31T06:57:23;2.65;;;1.52;;
51266;SDS011;37338;47.426;19.204;2023-08-31T06:59:49;2.97;;;0.80;;
51266;SDS011;37338;47.426;19.204;2023-08-31T07:02:15;3.58;;;1.30;;
51266;SDS011;37338;47.426;19.204;2023-08-31T07:04:41;4.70;;;1.13;;
51266;SDS011;37338;47.426;19.204;2023-08-31T07:07:07;18.95;;;2.63;;
51266;SDS011;37338;47.426;19.204;2023-08-31T07:09:33;4.88;;;1.10;;
51266;SDS011;37338;47.426;19.204;2023-08-31T07:11:59;8.13;;;1.20;;
51266;SDS011;37338;47.426;19.204;2023-08-31T07:14:26;4.93;;;1.35;;
51266;SDS011;37338;47.426;19.204;2023-08-31T07:16:51;5.28;;;1.23;;
51266;SDS011;37338;47.426;19.204;2023-08-31T07:19:17;3.95;;;1.00;;
51266;SDS011;37338;47.426;19.204;2023-08-31T07:21:42;1.05;;;0.80;;
51266;SDS011;37338;47.426;19.204;2023-08-31T07:24:08;3.00;;;1.40;;
51266;SDS011;37338;47.426;19.204;2023-08-31T07:26:33;2.88;;;0.90;;
51266;SDS011;37338;47.426;19.204;2023-08-31T07:29:00;0.95;;;0.80;;
51266;SDS011;37338;47.426;19.204;2023-08-31T07:31:26;6.55;;;1.88;;
51266;SDS011;37338;47.426;19.204;2023-08-31T07:33:52;1.95;;;0.90;;
51266;SDS011;37338;47.426;19.204;2023-08-31T07:36:17;4.53;;;1.05;;
51266;SDS011;37338;47.426;19.204;2023-08-31T07:38:42;1.63;;;0.90;;
51266;SDS011;37338;47.426;19.204;2023-08-31T07:41:08;6.22;;;1.40;;
51266;SDS011;37338;47.426;19.204;2023-08-31T07:43:33;3.03;;;1.05;;
51266;SDS011;37338;47.426;19.204;2023-08-31T07:45:58;3.17;;;1.17;;
51266;SDS011;37338;47.426;19.204;2023-08-31T07:48:24;3.00;;;1.15;;
51266;SDS011;37338;47.426;19.204;2023-08-31T07:50:49;3.88;;;1.20;;
51266;SDS011;37338;47.426;19.204;2023-08-31T07:53:15;2.67;;;1.00;;
51266;SDS011;37338;47.426;19.204;2023-08-31T07:55:47;2.55;;;0.80;;
51266;SDS011;37338;47.426;19.204;2023-08-31T07:58:24;2.05;;;0.80;;
51266;SDS011;37338;47.426;19.204;2023-08-31T08:00:54;2.78;;;1.10;;
51266;SDS011;37338;47.426;19.204;2023-08-31T08:03:21;1.40;;;1.10;;
51266;SDS011;37338;47.426;19.204;2023-08-31T08:05:47;3.30;;;1.42;;
51266;SDS011;37338;47.426;19.204;2023-08-31T08:08:12;2.47;;;1.17;;
51266;SDS011;37338;47.426;19.204;2023-08-31T08:10:38;3.08;;;1.50;;
51266;SDS011;37338;47.426;19.204;2023-08-31T08:13:03;1.13;;;1.00;;
51266;SDS011;37338;47.426;19.204;2023-08-31T08:15:29;2.03;;;1.13;;
51266;SDS011;37338;47.426;19.204;2023-08-31T08:17:55;2.33;;;1.35;;
51266;SDS011;37338;47.426;19.204;2023-08-31T08:20:22;3.85;;;1.25;;
51266;SDS011;37338;47.426;19.204;2023-08-31T08:22:48;1.92;;;1.17;;
51266;SDS011;37338;47.426;19.204;2023-08-31T08:25:17;2.50;;;1.10;;
51266;SDS011;37338;47.426;19.204;2023-08-31T08:27:43;2.08;;;0.90;;
51266;SDS011;37338;47.426;19.204;2023-08-31T08:30:09;5.72;;;1.00;;
51266;SDS011;37338;47.426;19.204;2023-08-31T08:32:34;3.42;;;1.08;;
51266;SDS011;37338;47.426;19.204;2023-08-31T08:35:00;4.07;;;1.58;;
51266;SDS011;37338;47.426;19.204;2023-08-31T08:37:25;5.53;;;1.30;;
51266;SDS011;37338;47.426;19.204;2023-08-31T08:39:51;2.75;;;1.42;;
51266;SDS011;37338;47.426;19.204;2023-08-31T08:42:17;2.33;;;1.33;;
51266;SDS011;37338;47.426;19.204;2023-08-31T08:44:43;5.55;;;1.63;;
51266;SDS011;37338;47.426;19.204;2023-08-31T08:47:08;1.90;;;1.08;;
51266;SDS011;37338;47.426;19.204;2023-08-31T08:49:35;2.35;;;1.23;;
51266;SDS011;37338;47.426;19.204;2023-08-31T08:52:01;1.92;;;0.93;;
51266;SDS011;37338;47.426;19.204;2023-08-31T08:54:27;1.42;;;1.00;;
51266;SDS011;37338;47.426;19.204;2023-08-31T08:56:52;1.40;;;0.93;;
51266;SDS011;37338;47.426;19.204;2023-08-31T08:59:18;3.47;;;1.10;;
51266;SDS011;37338;47.426;19.204;2023-08-31T09:01:43;1.25;;;1.13;;
51266;SDS011;37338;47.426;19.204;2023-08-31T09:04:09;1.55;;;0.75;;
51266;SDS011;37338;47.426;19.204;2023-08-31T09:06:35;1.27;;;0.90;;
51266;SDS011;37338;47.426;19.204;2023-08-31T09:09:00;2.03;;;1.23;;
51266;SDS011;37338;47.426;19.204;2023-08-31T09:11:26;2.88;;;0.95;;
51266;SDS011;37338;47.426;19.204;2023-08-31T09:13:51;2.67;;;1.05;;
51266;SDS011;37338;47.426;19.204;2023-08-31T09:16:26;2.83;;;1.05;;
51266;SDS011;37338;47.426;19.204;2023-08-31T09:18:55;3.35;;;1.13;;
51266;SDS011;37338;47.426;19.204;2023-08-31T09:21:21;7.00;;;1.00;;
51266;SDS011;37338;47.426;19.204;2023-08-31T09:23:58;1.63;;;0.95;;
51266;SDS011;37338;47.426;19.204;2023-08-31T09:26:24;1.17;;;1.08;;
51266;SDS011;37338;47.426;19.204;2023-08-31T09:28:49;2.58;;;0.82;;
51266;SDS011;37338;47.426;19.204;2023-08-31T09:31:15;3.63;;;0.77;;
51266;SDS011;37338;47.426;19.204;2023-08-31T09:33:49;4.65;;;0.80;;
51266;SDS011;37338;47.426;19.204;2023-08-31T09:36:15;1.10;;;0.80;;
51266;SDS011;37338;47.426;19.204;2023-08-31T09:38:44;3.65;;;1.10;;
51266;SDS011;37338;47.426;19.204;2023-08-31T09:41:09;5.95;;;1.38;;
51266;SDS011;37338;47.426;19.204;2023-08-31T09:43:35;4.32;;;1.40;;
51266;SDS011;37338;47.426;19.204;2023-08-31T09:46:01;1.88;;;0.90;;
51266;SDS011;37338;47.426;19.204;2023-08-31T09:48:28;6.72;;;0.85;;
51266;SDS011;37338;47.426;19.204;2023-08-31T09:50:54;2.90;;;0.88;;
51266;SDS011;37338;47.426;19.204;2023-08-31T09:53:21;6.43;;;1.00;;
51266;SDS011;37338;47.426;19.204;2023-08-31T09:55:47;1.20;;;0.60;;
51266;SDS011;37338;47.426;19.204;2023-08-31T09:58:16;4.82;;;0.85;;
51266;SDS011;37338;47.426;19.204;2023-08-31T10:00:42;1.48;;;0.77;;
51266;SDS011;37338;47.426;19.204;2023-08-31T10:03:08;2.10;;;0.77;;
51266;SDS011;37338;47.426;19.204;2023-08-31T10:05:34;1.40;;;0.98;;
51266;SDS011;37338;47.426;19.204;2023-08-31T10:08:00;0.95;;;0.85;;
51266;SDS011;37338;47.426;19.204;2023-08-31T10:10:26;5.63;;;0.98;;
51266;SDS011;37338;47.426;19.204;2023-08-31T10:12:54;1.10;;;0.80;;
51266;SDS011;37338;47.426;19.204;2023-08-31T10:15:19;1.45;;;0.60;;
51266;SDS011;37338;47.426;19.204;2023-08-31T10:17:45;2.85;;;1.38;;
51266;SDS011;37338;47.426;19.204;2023-08-31T10:20:20;2.00;;;0.70;;
51266;SDS011;37338;47.426;19.204;2023-08-31T10:22:45;1.25;;;0.50;;
51266;SDS011;37338;47.426;19.204;2023-08-31T10:25:11;2.85;;;0.90;;
51266;SDS011;37338;47.426;19.204;2023-08-31T10:30:15;3.33;;;1.05;;
51266;SDS011;37338;47.426;19.204;2023-08-31T10:38:15;1.70;;;0.77;;
51266;SDS011;37338;47.426;19.204;2023-08-31T10:46:30;2.38;;;0.60;;
51266;SDS011;37338;47.426;19.204;2023-08-31T10:49:12;0.88;;;0.73;;
51266;SDS011;37338;47.426;19.204;2023-08-31T10:51:49;0.82;;;0.63;;
51266;SDS011;37338;47.426;19.204;2023-08-31T10:54:22;1.00;;;0.85;;
51266;SDS011;37338;47.426;19.204;2023-08-31T10:59:23;3.70;;;0.80;;
51266;SDS011;37338;47.426;19.204;2023-08-31T11:01:53;2.08;;;0.60;;
51266;SDS011;37338;47.426;19.204;2023-08-31T11:06:49;2.42;;;0.80;;
51266;SDS011;37338;47.426;19.204;2023-08-31T11:09:21;1.25;;;0.68;;
51266;SDS011;37338;47.426;19.204;2023-08-31T11:11:47;1.85;;;0.70;;
51266;SDS011;37338;47.426;19.204;2023-08-31T11:14:14;1.45;;;0.50;;
51266;SDS011;37338;47.426;19.204;2023-08-31T11:16:40;2.85;;;0.77;;
51266;SDS011;37338;47.426;19.204;2023-08-31T11:19:06;1.52;;;0.70;;
51266;SDS011;37338;47.426;19.204;2023-08-31T11:21:32;0.70;;;0.47;;
51266;SDS011;37338;47.426;19.204;2023-08-31T11:23:57;2.15;;;0.70;;
51266;SDS011;37338;47.426;19.204;2023-08-31T11:26:26;2.47;;;0.52;;
51266;SDS011;37338;47.426;19.204;2023-08-31T11:28:51;6.25;;;1.70;;
51266;SDS011;37338;47.426;19.204;2023-08-31T11:31:26;3.38;;;0.98;;
51266;SDS011;37338;47.426;19.204;2023-08-31T11:33:52;3.53;;;0.60;;
51266;SDS011;37338;47.426;19.204;2023-08-31T11:36:19;1.23;;;0.65;;
51266;SDS011;37338;47.426;19.204;2023-08-31T11:38:44;3.47;;;0.80;;
51266;SDS011;37338;47.426;19.204;2023-08-31T11:41:10;3.03;;;0.68;;
51266;SDS011;37338;47.426;19.204;2023-08-31T11:43:36;2.35;;;0.50;;
51266;SDS011;37338;47.426;19.204;2023-08-31T11:46:02;0.68;;;0.52;;
51266;SDS011;37338;47.426;19.204;2023-08-31T11:48:28;1.77;;;0.80;;
51266;SDS011;37338;47.426;19.204;2023-08-31T11:50:54;4.32;;;0.75;;
51266;SDS011;37338;47.426;19.204;2023-08-31T11:53:19;1.83;;;0.57;;
51266;SDS011;37338;47.426;19.204;2023-08-31T11:55:51;0.90;;;0.60;;
51266;SDS011;37338;47.426;19.204;2023-08-31T11:58:18;2.28;;;0.57;;
51266;SDS011;37338;47.426;19.204;2023-08-31T12:01:19;0.82;;;0.55;;
51266;SDS011;37338;47.426;19.204;2023-08-31T12:03:43;2.20;;;0.65;;
51266;SDS011;37338;47.426;19.204;2023-08-31T12:06:12;2.00;;;1.05;;
51266;SDS011;37338;47.426;19.204;2023-08-31T12:08:40;3.20;;;0.73;;
51266;SDS011;37338;47.426;19.204;2023-08-31T12:11:08;2.10;;;0.40;;
51266;SDS011;37338;47.426;19.204;2023-08-31T12:13:34;1.58;;;0.70;;
51266;SDS011;37338;47.426;19.204;2023-08-31T12:15:59;1.27;;;0.60;;
51266;SDS011;37338;47.426;19.204;2023-08-31T12:18:28;1.27;;;0.60;;
51266;SDS011;37338;47.426;19.204;2023-08-31T12:20:55;2.60;;;0.70;;
51266;SDS011;37338;47.426;19.204;2023-08-31T12:23:20;4.30;;;0.60;;
51266;SDS011;37338;47.426;19.204;2023-08-31T12:25:50;3.35;;;0.93;;
51266;SDS011;37338;47.426;19.204;2023-08-31T12:28:17;2.20;;;0.52;;
51266;SDS011;37338;47.426;19.204;2023-08-31T12:30:49;1.05;;;0.50;;
51266;SDS011;37338;47.426;19.204;2023-08-31T12:33:15;2.55;;;0.63;;
51266;SDS011;37338;47.426;19.204;2023-08-31T12:35:41;3.80;;;0.70;;
51266;SDS011;37338;47.426;19.204;2023-08-31T12:38:07;2.33;;;0.63;;
51266;SDS011;37338;47.426;19.204;2023-08-31T12:40:32;1.30;;;0.52;;
51266;SDS011;37338;47.426;19.204;2023-08-31T12:42:58;5.55;;;1.20;;
51266;SDS011;37338;47.426;19.204;2023-08-31T12:45:23;3.03;;;0.70;;
51266;SDS011;37338;47.426;19.204;2023-08-31T12:47:48;2.15;;;0.98;;
51266;SDS011;37338;47.426;19.204;2023-08-31T12:50:14;1.65;;;0.70;;
51266;SDS011;37338;47.426;19.204;2023-08-31T12:52:39;2.03;;;0.73;;
51266;SDS011;37338;47.426;19.204;2023-08-31T12:55:09;1.92;;;0.77;;
51266;SDS011;37338;47.426;19.204;2023-08-31T12:57:35;4.18;;;0.88;;
51266;SDS011;37338;47.426;19.204;2023-08-31T13:00:01;1.52;;;0.60;;
51266;SDS011;37338;47.426;19.204;2023-08-31T13:02:28;0.68;;;0.45;;
51266;SDS011;37338;47.426;19.204;2023-08-31T13:04:54;1.02;;;0.55;;
51266;SDS011;37338;47.426;19.204;2023-08-31T13:07:19;1.23;;;0.70;;
51266;SDS011;37338;47.426;19.204;2023-08-31T13:09:45;0.50;;;0.47;;
51266;SDS011;37338;47.426;19.204;2023-08-31T13:12:10;1.42;;;0.93;;
51266;SDS011;37338;47.426;19.204;2023-08-31T13:14:36;4.95;;;0.70;;
51266;SDS011;37338;47.426;19.204;2023-08-31T13:17:01;2.95;;;0.82;;
51266;SDS011;37338;47.426;19.204;2023-08-31T13:19:27;1.10;;;0.70;;
51266;SDS011;37338;47.426;19.204;2023-08-31T13:21:53;1.05;;;0.57;;
51266;SDS011;37338;47.426;19.204;2023-08-31T13:24:18;1.60;;;0.60;;
51266;SDS011;37338;47.426;19.204;2023-08-31T13:26:44;2.55;;;0.80;;
51266;SDS011;37338;47.426;19.204;2023-08-31T13:29:12;2.83;;;0.70;;
51266;SDS011;37338;47.426;19.204;2023-08-31T13:31:38;4.30;;;1.83;;
51266;SDS011;37338;47.426;19.204;2023-08-31T13:34:04;0.90;;;0.52;;
51266;SDS011;37338;47.426;19.204;2023-08-31T13:36:31;2.50;;;0.50;;
51266;SDS011;37338;47.426;19.204;2023-08-31T13:38:57;1.42;;;0.70;;
51266;SDS011;37338;47.426;19.204;2023-08-31T13:41:22;1.35;;;0.80;;
51266;SDS011;37338;47.426;19.204;2023-08-31T13:43:47;4.43;;;0.80;;
51266;SDS011;37338;47.426;19.204;2023-08-31T13:46:13;1.60;;;0.85;;
51266;SDS011;37338;47.426;19.204;2023-08-31T13:48:38;2.65;;;1.02;;
51266;SDS011;37338;47.426;19.204;2023-08-31T13:51:04;2.65;;;0.65;;
51266;SDS011;37338;47.426;19.204;2023-08-31T13:53:29;1.13;;;0.70;;
51266;SDS011;37338;47.426;19.204;2023-08-31T13:55:55;1.63;;;0.68;;
51266;SDS011;37338;47.426;19.204;2023-08-31T13:58:20;1.70;;;0.57;;
51266;SDS011;37338;47.426;19.204;2023-08-31T14:00:46;0.95;;;0.52;;
51266;SDS011;37338;47.426;19.204;2023-08-31T14:03:11;1.23;;;0.60;;
51266;SDS011;37338;47.426;19.204;2023-08-31T14:05:37;2.47;;;0.70;;
51266;SDS011;37338;47.426;19.204;2023-08-31T14:08:02;1.77;;;0.93;;
51266;SDS011;37338;47.426;19.204;2023-08-31T14:10:29;1.83;;;1.40;;
51266;SDS011;37338;47.426;19.204;2023-08-31T14:12:56;2.30;;;0.93;;
51266;SDS011;37338;47.426;19.204;2023-08-31T14:15:22;4.22;;;0.90;;
51266;SDS011;37338;47.426;19.204;2023-08-31T14:17:50;2.60;;;1.10;;
51266;SDS011;37338;47.426;19.204;2023-08-31T14:20:16;0.93;;;0.82;;
51266;SDS011;37338;47.426;19.204;2023-08-31T14:22:41;2.55;;;0.73;;
51266;SDS011;37338;47.426;19.204;2023-08-31T14:25:08;2.58;;;1.05;;
51266;SDS011;37338;47.426;19.204;2023-08-31T14:27:35;3.40;;;0.57;;
51266;SDS011;37338;47.426;19.204;2023-08-31T14:30:00;1.75;;;1.30;;
51266;SDS011;37338;47.426;19.204;2023-08-31T14:32:25;3.45;;;0.90;;
51266;SDS011;37338;47.426;19.204;2023-08-31T14:34:51;1.20;;;0.80;;
51266;SDS011;37338;47.426;19.204;2023-08-31T14:37:19;3.50;;;0.80;;
51266;SDS011;37338;47.426;19.204;2023-08-31T14:39:44;2.05;;;0.75;;
51266;SDS011;37338;47.426;19.204;2023-08-31T14:42:09;0.73;;;0.55;;
51266;SDS011;37338;47.426;19.204;2023-08-31T14:44:36;4.63;;;0.98;;
51266;SDS011;37338;47.426;19.204;2023-08-31T14:47:01;0.93;;;0.82;;
51266;SDS011;37338;47.426;19.204;2023-08-31T14:49:26;2.88;;;0.60;;
51266;SDS011;37338;47.426;19.204;2023-08-31T14:51:52;2.15;;;0.85;;
51266;SDS011;37338;47.426;19.204;2023-08-31T14:54:18;3.55;;;0.90;;
51266;SDS011;37338;47.426;19.204;2023-08-31T14:56:43;4.40;;;0.70;;
51266;SDS011;37338;47.426;19.204;2023-08-31T14:59:08;1.80;;;0.85;;